Time;durP1;ratioP1;P1;durP2;ratioP2;P2;SDS_P1;SDS_P2;PMS_P1;PMS_P2;Temp;Humidity;BMP_temperature;BMP_pressure;BME280_temperature;BME280_humidity;BME280_pressure;Samples;Min_cycle;Max_cycle;Signal;HPM_P1;HPM_P2
2022/05/08 00:01:35;;;;;;;5.93;2.80;;;;;;;13.15;77.08;102641.41;5075638;28;20265;-35
2022/05/08 00:04:01;;;;;;;4.95;3.08;;;;;;;12.98;77.49;102645.53;5074972;28;20075;-36
2022/05/08 00:06:26;;;;;;;4.75;3.10;;;;;;;13.08;78.10;102634.28;5074841;28;20020;-35
2022/05/08 00:08:52;;;;;;;5.93;3.10;;;;;;;12.85;78.00;102623.75;5075104;28;20032;-35
2022/05/08 00:11:17;;;;;;;6.23;3.27;;;;;;;12.93;78.09;102633.59;5074658;28;20274;-35
2022/05/08 00:13:42;;;;;;;5.77;3.00;;;;;;;12.89;78.46;102634.00;5074853;28;20315;-35
2022/05/08 00:16:09;;;;;;;8.07;3.75;;;;;;;12.94;78.44;102636.13;5073453;28;20033;-35
2022/05/08 00:18:34;;;;;;;5.45;3.05;;;;;;;12.87;78.50;102633.34;5074227;28;20033;-35
2022/05/08 00:21:00;;;;;;;6.90;3.50;;;;;;;12.93;78.31;102631.69;5074523;28;20031;-35
2022/05/08 00:23:25;;;;;;;6.80;3.33;;;;;;;12.89;78.34;102630.47;5075046;28;20115;-35
2022/05/08 00:25:51;;;;;;;6.78;3.60;;;;;;;12.81;78.86;102633.34;5074731;28;20024;-35
2022/05/08 00:28:16;;;;;;;7.68;3.45;;;;;;;12.85;79.29;102635.44;5074945;28;20119;-35
2022/05/08 00:30:41;;;;;;;5.57;3.30;;;;;;;12.87;78.91;102637.94;5074909;28;20063;-35
2022/05/08 00:33:07;;;;;;;5.77;3.60;;;;;;;12.87;79.18;102637.94;5074224;28;20500;-35
2022/05/08 00:35:32;;;;;;;6.43;3.43;;;;;;;12.79;79.52;102638.16;5074557;28;20033;-36
2022/05/08 00:37:58;;;;;;;3.92;3.13;;;;;;;12.91;79.36;102643.81;5073109;28;20647;-35
2022/05/08 00:40:23;;;;;;;6.93;3.30;;;;;;;12.81;79.24;102623.31;5074713;28;20063;-35
2022/05/08 00:42:48;;;;;;;6.70;3.58;;;;;;;12.78;79.42;102644.59;5074029;28;20035;-35
2022/05/08 00:45:14;;;;;;;6.57;4.00;;;;;;;12.82;79.05;102637.72;5073831;28;20461;-35
2022/05/08 00:47:40;;;;;;;6.60;3.47;;;;;;;12.85;79.35;102643.59;5073919;28;20277;-35
2022/05/08 00:50:06;;;;;;;8.45;4.05;;;;;;;12.68;79.67;102630.56;5074095;28;20032;-35
2022/05/08 00:52:32;;;;;;;6.47;4.03;;;;;;;12.68;79.33;102638.69;5074084;28;20338;-35
2022/05/08 00:54:58;;;;;;;7.13;4.25;;;;;;;12.66;79.75;102646.22;5073766;28;20029;-35
2022/05/08 00:57:24;;;;;;;7.70;4.10;;;;;;;12.58;79.68;102647.22;5074485;28;20028;-35
2022/05/08 00:59:49;;;;;;;4.55;3.60;;;;;;;12.49;79.46;102651.13;5073985;28;20099;-35
2022/05/08 01:02:15;;;;;;;6.07;4.22;;;;;;;12.53;79.20;102653.22;5073973;28;20186;-35
2022/05/08 01:04:40;;;;;;;6.15;3.78;;;;;;;12.52;79.60;102648.00;5074084;28;20023;-35
2022/05/08 01:07:05;;;;;;;6.47;4.23;;;;;;;12.49;78.93;102651.97;5073976;28;20437;-35
2022/05/08 01:09:31;;;;;;;7.23;4.70;;;;;;;12.45;79.48;102644.44;5074148;28;20286;-35
2022/05/08 01:11:56;;;;;;;7.53;4.22;;;;;;;12.34;79.49;102654.78;5073990;28;20024;-35
2022/05/08 01:14:22;;;;;;;7.43;4.03;;;;;;;12.30;79.40;102649.97;5073275;28;20036;-35
2022/05/08 01:16:47;;;;;;;7.25;5.55;;;;;;;12.36;79.57;102654.59;5106433;28;20021;-35
2022/05/08 01:19:13;;;;;;;7.10;4.10;;;;;;;12.41;79.38;102654.84;5073816;28;20024;-35
2022/05/08 01:21:41;;;;;;;7.82;3.97;;;;;;;12.38;79.31;102641.66;5073796;28;20445;-35
2022/05/08 01:24:10;;;;;;;6.95;4.63;;;;;;;12.37;78.65;102654.41;5073211;28;20112;-35
2022/05/08 01:26:35;;;;;;;7.30;4.43;;;;;;;12.32;79.30;102661.47;5073040;28;20102;-35
2022/05/08 01:29:01;;;;;;;6.70;4.40;;;;;;;12.23;79.38;102657.22;5073227;28;20040;-35
2022/05/08 01:31:27;;;;;;;;;;;;;;;12.40;78.06;102653.19;5074185;28;20247;-35
2022/05/08 01:33:52;;;;;;;7.18;4.30;;;;;;;12.08;78.98;102633.75;5073166;28;20387;-35
2022/05/08 01:36:18;;;;;;;8.07;5.07;;;;;;;12.26;79.26;102654.97;5073302;28;20033;-35
2022/05/08 01:38:44;;;;;;;6.78;5.00;;;;;;;12.05;79.95;102655.84;5073476;28;20029;-35
2022/05/08 01:41:09;;;;;;;5.68;4.47;;;;;;;12.06;80.01;102653.97;5073678;28;20036;-35
2022/05/08 01:43:37;;;;;;;10.60;6.13;;;;;;;12.04;80.09;102667.72;5073006;28;20376;-35
2022/05/08 01:46:06;;;;;;;6.97;5.35;;;;;;;12.08;80.12;102673.59;5073061;28;20033;-35
2022/05/08 01:48:33;;;;;;;8.80;5.38;;;;;;;12.08;79.77;102670.88;5072898;28;20024;-35
2022/05/08 01:51:00;;;;;;;6.45;4.90;;;;;;;12.13;80.10;102664.88;5073439;28;20058;-35
2022/05/08 01:53:33;;;;;;;4.88;4.38;;;;;;;11.99;80.13;102662.03;5072643;28;20028;-35
2022/05/08 01:56:02;;;;;;;8.85;5.13;;;;;;;12.10;80.02;102671.50;5073303;28;20025;-35
2022/05/08 01:58:29;;;;;;;7.25;5.07;;;;;;;12.03;79.89;102674.19;5072749;28;20050;-35
2022/05/08 02:00:56;;;;;;;7.32;5.13;;;;;;;12.06;80.22;102679.22;5073062;28;20097;-35
2022/05/08 02:03:23;;;;;;;6.75;5.25;;;;;;;11.90;80.48;102668.63;5072423;28;20032;-35
2022/05/08 02:05:49;;;;;;;10.77;5.53;;;;;;;11.81;80.34;102664.38;5073333;28;20373;-35
2022/05/08 02:08:15;;;;;;;9.73;6.15;;;;;;;11.76;80.77;102666.81;5072486;28;20054;-35
2022/05/08 02:10:40;;;;;;;9.38;6.57;;;;;;;11.78;80.92;102681.84;5073088;28;20033;-35
2022/05/08 02:13:09;;;;;;;8.40;5.43;;;;;;;11.78;80.30;102679.16;5072689;28;20048;-35
2022/05/08 02:15:35;;;;;;;8.65;4.75;;;;;;;11.84;80.71;102685.69;5073421;28;20070;-35
2022/05/08 02:18:02;;;;;;;;;;;;;;;11.93;79.79;102689.94;5073033;28;20025;-35
2022/05/08 02:20:28;;;;;;;9.77;5.35;;;;;;;11.88;80.23;102691.56;5072958;28;19908;-35
2022/05/08 02:22:53;;;;;;;8.20;5.43;;;;;;;11.78;80.21;102687.28;5073035;28;20354;-36
2022/05/08 02:25:19;;;;;;;7.32;5.13;;;;;;;11.75;80.42;102693.06;5072401;28;20035;-35
2022/05/08 02:27:49;;;;;;;9.88;5.60;;;;;;;11.75;80.60;102694.94;5072896;28;20485;-35
2022/05/08 02:30:16;;;;;;;9.63;5.38;;;;;;;11.72;80.32;102682.63;5072820;28;20109;-35
2022/05/08 02:32:42;;;;;;;10.38;5.85;;;;;;;11.65;80.84;102686.31;5072180;28;20048;-35
2022/05/08 02:35:11;;;;;;;;;;;;;;;11.74;80.13;102690.56;5073058;28;20029;-36
2022/05/08 02:37:38;;;;;;;8.32;5.57;;;;;;;11.45;80.77;102672.56;5072455;28;19912;-35
2022/05/08 02:40:14;;;;;;;6.85;5.07;;;;;;;11.63;81.00;102693.78;5075440;28;20025;-36
2022/05/08 02:42:39;;;;;;;7.18;4.95;;;;;;;11.43;80.84;102670.03;5076587;28;20107;-35
2022/05/08 02:45:08;;;;;;;9.70;5.22;;;;;;;11.59;80.60;102706.88;5076291;28;20035;-35
2022/05/08 02:47:35;;;;;;;12.35;5.78;;;;;;;11.38;80.24;102680.63;5076732;28;20451;-35
2022/05/08 02:50:00;;;;;;;10.27;6.25;;;;;;;11.39;80.88;102697.72;5076376;28;20036;-36
2022/05/08 02:52:25;;;;;;;11.25;5.88;;;;;;;11.43;80.94;102689.00;5076717;28;20024;-35
2022/05/08 02:54:51;;;;;;;9.63;5.63;;;;;;;11.56;80.63;102702.66;5075718;28;20024;-35
2022/05/08 03:00:05;;;;;;;9.43;5.32;;;;;;;11.59;80.34;102704.19;5075819;28;20102;-35
2022/05/08 03:02:33;;;;;;;7.55;5.28;;;;;;;11.66;79.35;102705.06;5076642;28;20033;-35
2022/05/08 03:04:58;;;;;;;10.20;6.28;;;;;;;11.52;78.94;102703.28;5075943;28;20024;-35
2022/05/08 03:07:23;;;;;;;8.60;5.10;;;;;;;11.53;78.84;102703.06;5076211;28;20483;-35
2022/05/08 03:09:49;;;;;;;8.23;4.90;;;;;;;11.34;78.55;102687.44;5075547;28;20029;-35
2022/05/08 03:12:14;;;;;;;11.77;5.63;;;;;;;11.23;78.82;102688.78;5076156;28;20031;-35
2022/05/08 03:14:39;;;;;;;9.97;5.37;;;;;;;11.39;78.56;102698.53;5075738;28;20107;-35
2022/05/08 03:17:05;;;;;;;10.23;4.93;;;;;;;11.34;79.11;102690.16;5075781;28;20247;-35
2022/05/08 03:19:31;;;;;;;11.07;5.00;;;;;;;11.16;78.31;102681.59;5075304;28;20028;-35
2022/05/08 03:21:57;;;;;;;11.65;5.13;;;;;;;11.33;78.18;102704.72;5075654;28;20039;-35
2022/05/08 03:24:22;;;;;;;10.37;4.90;;;;;;;11.27;78.60;102689.22;5075633;28;20028;-35
2022/05/08 03:26:47;;;;;;;7.90;4.40;;;;;;;11.34;77.89;102706.41;5075562;28;20135;-35
2022/05/08 03:29:12;;;;;;;12.37;4.50;;;;;;;11.40;77.02;102708.34;5076036;28;20097;-35
2022/05/08 03:31:39;;;;;;;8.77;4.40;;;;;;;11.35;76.86;102699.94;5075269;28;20103;-35
2022/05/08 03:34:04;;;;;;;11.15;4.50;;;;;;;11.34;75.65;102704.53;5075443;28;20024;-35
2022/05/08 03:36:29;;;;;;;9.80;4.35;;;;;;;11.29;75.44;102704.25;5075678;28;20028;-35
2022/05/08 03:38:55;;;;;;;13.80;4.63;;;;;;;11.18;75.36;102704.75;5075043;28;20036;-35
2022/05/08 03:41:20;;;;;;;11.77;4.50;;;;;;;11.04;75.03;102706.47;5076116;28;20060;-35
2022/05/08 03:43:46;;;;;;;12.60;4.50;;;;;;;10.89;75.29;102713.75;5074886;28;20107;-35
2022/05/08 03:46:15;;;;;;;;;;;;;;;10.88;75.10;102712.06;5076246;28;20255;-35
2022/05/08 03:48:41;;;;;;;15.15;4.57;;;;;;;10.75;75.35;102709.19;5075101;28;19908;-35
2022/05/08 03:51:08;;;;;;;12.70;4.25;;;;;;;10.83;75.45;102709.06;5075818;28;20024;-35
2022/05/08 03:53:33;;;;;;;11.15;4.05;;;;;;;10.85;75.53;102711.63;5075043;28;20032;-35
2022/05/08 03:55:59;;;;;;;13.52;3.97;;;;;;;10.86;75.75;102718.69;5075875;28;20089;-35
2022/05/08 03:58:24;;;;;;;12.95;4.28;;;;;;;10.88;75.82;102712.06;5075012;28;20472;-35
2022/05/08 04:00:50;;;;;;;12.03;4.60;;;;;;;10.87;75.60;102715.78;5075839;28;20032;-35
2022/05/08 04:03:15;;;;;;;13.90;4.43;;;;;;;10.86;75.67;102719.53;5074835;28;20025;-35
2022/05/08 04:05:40;;;;;;;13.60;4.57;;;;;;;10.80;76.18;102713.00;5074636;28;20029;-35
2022/05/08 04:08:06;;;;;;;14.02;4.53;;;;;;;10.79;75.81;102719.47;5074466;28;20773;-35
2022/05/08 04:10:33;;;;;;;10.90;4.15;;;;;;;10.75;76.36;102717.31;5074670;28;20028;-35
2022/05/08 04:12:58;;;;;;;13.65;4.50;;;;;;;10.74;76.37;102711.06;5075078;28;20036;-35
2022/05/08 04:18:09;;;;;;;16.67;4.40;;;;;;;10.71;76.85;102721.41;5074626;28;20043;-35
2022/05/08 04:20:35;;;;;;;17.65;4.22;;;;;;;10.67;77.14;102726.34;5074570;28;20024;-35
2022/05/08 04:25:43;;;;;;;13.77;4.38;;;;;;;10.67;76.50;102730.91;5074493;28;20086;-35
2022/05/08 04:28:09;;;;;;;14.63;4.47;;;;;;;10.60;76.81;102730.00;5074262;28;20116;-35
2022/05/08 04:30:36;;;;;;;13.98;4.40;;;;;;;10.34;75.88;102706.91;5074841;28;20263;-35
2022/05/08 04:33:01;;;;;;;10.52;3.95;;;;;;;10.41;76.43;102725.94;5074201;28;20063;-35
2022/05/08 04:35:27;;;;;;;10.88;3.90;;;;;;;10.34;77.13;102725.81;5074800;28;20029;-35
2022/05/08 04:37:52;;;;;;;15.33;3.83;;;;;;;10.26;76.71;102725.94;5074402;28;20457;-35
2022/05/08 04:40:17;;;;;;;19.47;4.23;;;;;;;10.22;76.81;102721.88;5074655;28;20020;-35
2022/05/08 04:42:43;;;;;;;13.50;4.40;;;;;;;10.27;77.43;102741.13;5074070;28;20476;-35
2022/05/08 04:45:08;;;;;;;14.13;3.93;;;;;;;10.37;77.07;102736.28;5072523;28;20036;-35
2022/05/08 04:47:34;;;;;;;13.93;4.85;;;;;;;10.32;76.88;102733.28;5074491;28;20024;-35
2022/05/08 04:49:59;;;;;;;13.37;4.33;;;;;;;10.29;76.95;102733.66;5073910;28;20030;-35
2022/05/08 04:52:24;;;;;;;17.40;4.70;;;;;;;10.13;78.05;102734.63;5073713;28;20025;-35
2022/05/08 04:54:50;;;;;;;16.20;4.03;;;;;;;10.23;77.61;102739.75;5073542;28;20024;-35
2022/05/08 04:57:15;;;;;;;16.47;5.33;;;;;;;10.17;77.12;102722.41;5073831;28;20119;-35
2022/05/08 04:59:40;;;;;;;15.87;4.70;;;;;;;10.39;77.49;102744.22;5073725;28;20028;-35
2022/05/08 05:02:08;;;;;;;14.77;4.00;;;;;;;10.42;76.93;102747.41;5073371;28;20033;-35
2022/05/08 05:04:34;;;;;;;11.98;3.67;;;;;;;10.43;76.77;102754.47;5073530;28;20024;-35
2022/05/08 05:06:59;;;;;;;;;;;;;;;10.49;76.49;102758.31;5073773;28;20032;-35
2022/05/08 05:09:25;;;;;;;12.57;4.03;;;;;;;10.45;76.62;102759.72;5073634;28;19915;-35
2022/05/08 05:11:50;;;;;;;16.40;4.20;;;;;;;10.40;76.26;102749.47;5074355;28;20032;-35
2022/05/08 05:14:16;;;;;;;14.43;3.80;;;;;;;10.51;76.02;102767.09;5072358;28;20032;-35
2022/05/08 05:16:41;;;;;;;13.98;3.75;;;;;;;10.48;75.96;102767.47;5073922;28;20495;-35
2022/05/08 05:19:06;;;;;;;16.50;4.17;;;;;;;10.38;75.78;102765.00;5073445;28;20471;-35
2022/05/08 05:21:32;;;;;;;14.50;3.80;;;;;;;10.51;76.19;102765.22;5073628;28;20271;-35
2022/05/08 05:23:57;;;;;;;13.77;4.33;;;;;;;10.55;75.90;102771.13;5073277;28;20336;-35
2022/05/08 05:26:23;;;;;;;11.73;3.67;;;;;;;10.58;75.58;102774.28;5072836;28;20028;-35
2022/05/08 05:28:48;;;;;;;16.23;4.65;;;;;;;10.57;75.63;102779.88;5073741;28;20025;-35
2022/05/08 05:31:14;;;;;;;13.10;3.50;;;;;;;10.64;74.87;102780.84;5073537;28;20098;-35
2022/05/08 05:33:39;;;;;;;15.10;3.80;;;;;;;10.57;74.35;102783.44;5073329;28;20350;-35
2022/05/08 05:36:05;;;;;;;13.93;3.40;;;;;;;10.51;75.08;102781.47;5072940;28;20127;-35
2022/05/08 05:38:30;;;;;;;14.32;4.32;;;;;;;10.51;74.19;102781.47;5073050;28;20263;-35
2022/05/08 05:40:55;;;;;;;16.87;4.17;;;;;;;10.50;74.48;102796.00;5073437;28;20032;-35
2022/05/08 05:43:20;;;;;;;13.67;3.57;;;;;;;10.50;74.69;102796.00;5073233;28;20033;-35
2022/05/08 05:47:49;;;;;;;14.93;3.63;;;;;;;10.45;74.07;102795.72;5072845;28;20085;-35
2022/05/08 05:48:31;;;;;;;12.35;3.80;;;;;;;10.37;74.66;102800.34;5073141;28;20396;-35
2022/05/08 05:50:56;;;;;;;17.60;3.57;;;;;;;10.46;74.32;102805.50;5072805;28;20036;-35
2022/05/08 05:53:22;;;;;;;15.83;3.67;;;;;;;10.55;73.75;102811.69;5072940;28;20056;-35
2022/05/08 05:55:47;;;;;;;16.23;4.67;;;;;;;10.55;73.63;102804.41;5073220;28;20032;-35
2022/05/08 05:58:12;;;;;;;14.33;3.87;;;;;;;10.69;73.85;102810.06;5072810;28;20028;-35
2022/05/08 06:00:38;;;;;;;12.90;3.30;;;;;;;10.70;73.49;102811.72;5072873;28;20027;-35
2022/05/08 06:03:03;;;;;;;11.50;3.50;;;;;;;10.77;74.00;102818.91;5072393;28;20161;-35
2022/05/08 06:05:28;;;;;;;12.33;2.87;;;;;;;10.75;73.90;102810.16;5073240;28;20017;-35
2022/05/08 06:07:54;;;;;;;14.33;3.97;;;;;;;10.64;72.24;102823.25;5072409;28;20030;-35
2022/05/08 06:10:19;;;;;;;15.57;4.30;;;;;;;10.63;73.01;102827.00;5073039;28;20317;-35
2022/05/08 06:12:44;;;;;;;16.00;3.87;;;;;;;10.73;72.75;102822.16;5072721;28;20440;-35
2022/05/08 06:15:10;;;;;;;13.80;3.20;;;;;;;10.55;72.09;102834.19;5076609;28;20079;-35
2022/05/08 06:17:36;;;;;;;12.10;3.28;;;;;;;10.61;73.04;102829.91;5077630;28;20041;-35
2022/05/08 06:20:02;;;;;;;11.98;3.63;;;;;;;10.78;72.59;102830.56;5077841;28;20199;-35
2022/05/08 06:22:28;;;;;;;10.07;2.97;;;;;;;10.91;71.99;102836.19;5076471;28;20174;-35
2022/05/08 06:24:53;;;;;;;19.25;4.75;;;;;;;10.79;71.11;102832.28;5076759;28;20032;-35
2022/05/08 06:27:18;;;;;;;14.60;3.73;;;;;;;10.76;71.55;102828.06;5076669;28;20051;-35
2022/05/08 06:29:44;;;;;;;12.57;3.70;;;;;;;10.94;71.96;102843.97;5076719;28;20024;-35
2022/05/08 06:32:09;;;;;;;12.00;4.30;;;;;;;10.81;71.31;102835.63;5076499;28;20540;-35
2022/05/08 06:34:35;;;;;;;13.73;3.10;;;;;;;10.96;71.78;102831.06;5076542;28;20479;-35
2022/05/08 06:37:00;;;;;;;12.07;3.43;;;;;;;11.08;71.07;102845.00;5076856;28;20032;-35
2022/05/08 06:39:26;;;;;;;12.87;3.40;;;;;;;11.21;70.88;102833.50;5076514;28;20051;-35
2022/05/08 06:41:51;;;;;;;13.27;3.42;;;;;;;11.23;70.67;102839.59;5076948;28;20020;-35
2022/05/08 06:44:16;;;;;;;11.77;3.30;;;;;;;11.33;69.91;102851.81;5076629;28;20119;-35
2022/05/08 06:46:42;;;;;;;18.70;3.73;;;;;;;11.28;69.74;102842.59;5076385;28;20029;-35
2022/05/08 06:49:07;;;;;;;14.87;3.77;;;;;;;11.09;69.83;102843.97;5076336;28;20270;-35
2022/05/08 06:51:34;;;;;;;10.40;3.40;;;;;;;11.19;69.97;102859.94;5076003;28;20035;-35
2022/05/08 06:54:00;;;;;;;10.60;2.88;;;;;;;11.26;70.21;102839.22;5076076;28;20714;-35
2022/05/08 06:56:26;;;;;;;;;;;;;;;11.50;69.31;102857.88;5076570;28;20042;-35
2022/05/08 07:01:40;;;;;;;11.65;3.22;;;;;;;11.40;68.95;102843.78;5076655;28;20484;-35
2022/05/08 07:04:07;;;;;;;17.38;4.07;;;;;;;11.39;68.38;102836.69;5076129;28;20392;-35
2022/05/08 07:06:34;;;;;;;13.98;3.63;;;;;;;11.44;69.63;102845.09;5075898;28;20066;-35
2022/05/08 07:09:00;;;;;;;12.82;3.33;;;;;;;11.52;69.20;102850.41;5075923;28;20028;-35
2022/05/08 07:11:25;;;;;;;15.52;3.72;;;;;;;11.52;69.50;102849.59;5076085;28;20032;-35
2022/05/08 07:13:51;;;;;;;16.20;4.05;;;;;;;11.52;69.04;102860.41;5075815;28;20400;-35
2022/05/08 07:16:16;;;;;;;17.55;3.45;;;;;;;11.64;69.36;102858.91;5076557;28;20115;-35
2022/05/08 07:18:42;;;;;;;11.82;3.60;;;;;;;11.70;69.42;102857.28;5076277;28;20028;-35
2022/05/08 07:21:07;;;;;;;15.87;3.97;;;;;;;11.78;69.25;102866.16;5076201;28;20177;-35
2022/05/08 07:23:32;;;;;;;14.05;3.78;;;;;;;11.76;68.21;102868.25;5076072;28;20021;-35
2022/05/08 07:25:58;;;;;;;15.43;4.20;;;;;;;11.68;67.98;102864.78;5075443;28;20477;-35
2022/05/08 07:28:24;;;;;;;12.32;3.22;;;;;;;11.70;68.29;102860.84;5075938;28;20379;-35
2022/05/08 07:30:49;;;;;;;7.75;2.95;;;;;;;11.80;68.89;102869.50;5075617;28;20028;-35
2022/05/08 07:33:16;;;;;;;17.23;4.93;;;;;;;11.83;68.31;102871.88;5075404;28;20387;-35
2022/05/08 07:38:26;;;;;;;12.75;3.75;;;;;;;11.83;68.44;102868.34;5075687;28;20082;-34
2022/05/08 07:40:52;;;;;;;;;;;;;;;12.08;68.77;102866.97;5076245;28;20513;-33
2022/05/08 07:43:17;;;;;;;13.60;3.53;;;;;;;12.09;67.90;102862.38;5075193;28;19999;-35
2022/05/08 07:45:43;;;;;;;13.13;3.90;;;;;;;11.98;67.40;102861.00;5076078;28;20302;-35
2022/05/08 07:48:08;;;;;;;13.45;3.65;;;;;;;12.19;67.36;102879.16;5075216;28;20035;-35
2022/05/08 07:50:34;;;;;;;13.93;3.58;;;;;;;12.18;67.14;102866.66;5075248;28;20056;-35
2022/05/08 07:52:59;;;;;;;16.40;3.70;;;;;;;12.02;65.92;102867.72;5075787;28;20029;-35
2022/05/08 07:55:24;;;;;;;16.73;4.67;;;;;;;12.20;66.24;102869.16;5075407;28;20028;-35
2022/05/08 07:57:50;;;;;;;11.47;3.30;;;;;;;12.41;66.32;102873.78;5074876;28;20032;-35
2022/05/08 08:00:15;;;;;;;11.97;2.80;;;;;;;12.61;66.66;102878.34;5074890;28;20530;-36
2022/05/08 08:02:41;;;;;;;13.57;2.88;;;;;;;12.78;65.94;102878.91;5075358;28;20036;-35
2022/05/08 08:05:06;;;;;;;9.57;3.00;;;;;;;12.53;63.93;102874.91;5074987;28;20033;-35
2022/05/08 08:07:32;;;;;;;9.20;2.97;;;;;;;12.58;64.30;102873.28;5075291;28;20711;-35
2022/05/08 08:09:58;;;;;;;10.75;2.95;;;;;;;12.83;64.74;102878.31;5074674;28;20036;-35
2022/05/08 08:12:24;;;;;;;11.70;3.80;;;;;;;12.61;63.00;102856.63;5074406;28;20036;-35
2022/05/08 08:14:49;;;;;;;13.02;3.80;;;;;;;12.81;63.53;102880.41;5074787;28;20035;-35
2022/05/08 08:17:14;;;;;;;10.50;2.87;;;;;;;12.80;63.75;102878.72;5074314;28;20067;-33
2022/05/08 08:19:40;;;;;;;10.63;3.30;;;;;;;12.97;63.11;102873.81;5075261;28;20028;-34
2022/05/08 08:22:05;;;;;;;13.13;3.47;;;;;;;13.10;62.80;102879.38;5074689;28;20283;-34
2022/05/08 08:24:32;;;;;;;16.08;4.30;;;;;;;13.17;62.84;102876.69;5074929;28;20441;-34
2022/05/08 08:26:57;;;;;;;10.10;2.72;;;;;;;13.11;61.22;102887.31;5074269;28;20123;-34
2022/05/08 08:29:22;;;;;;;12.88;3.38;;;;;;;13.30;60.11;102879.53;5074057;28;20115;-34
2022/05/08 08:31:48;;;;;;;15.40;4.10;;;;;;;13.36;60.49;102882.28;5074702;28;20020;-34
2022/05/08 08:34:13;;;;;;;16.73;3.93;;;;;;;13.35;58.92;102868.91;5074743;28;20052;-34
2022/05/08 08:36:38;;;;;;;16.00;3.58;;;;;;;13.39;58.57;102883.75;5073521;28;20270;-34
2022/05/08 08:39:04;;;;;;;6.83;2.40;;;;;;;13.47;56.00;102880.88;5074144;28;20425;-34
2022/05/08 08:41:34;;;;;;;8.48;3.08;;;;;;;13.52;56.62;102891.16;5074677;28;20484;-34
2022/05/08 08:49:42;;;;;;;11.48;3.38;;;;;;;13.96;57.94;102888.00;5073727;28;20051;-35
2022/05/08 08:52:08;;;;;;;15.32;3.33;;;;;;;14.12;56.79;102884.06;5074198;28;20445;-34
2022/05/08 08:54:34;;;;;;;9.90;2.92;;;;;;;14.22;56.04;102889.13;5073880;28;20040;-35
2022/05/08 08:56:59;;;;;;;9.10;2.63;;;;;;;14.24;53.62;102885.13;5073984;28;20033;-35
2022/05/08 08:59:24;;;;;;;7.38;2.40;;;;;;;14.29;53.21;102879.91;5073357;28;20123;-34
2022/05/08 09:01:50;;;;;;;8.77;3.00;;;;;;;14.25;53.97;102877.81;5072488;28;20040;-35
2022/05/08 09:04:18;;;;;;;12.25;2.72;;;;;;;14.26;54.77;102866.75;5073419;28;20279;-34
2022/05/08 09:06:44;;;;;;;8.40;2.78;;;;;;;14.38;53.75;102870.50;5073756;28;20063;-34
2022/05/08 09:09:32;;;;;;;12.52;3.00;;;;;;;14.56;55.47;102864.50;5073654;28;20024;-35
2022/05/08 09:11:58;;;;;;;11.07;2.72;;;;;;;14.88;53.73;102886.50;5073957;28;20020;-34
2022/05/08 09:14:33;;;;;;;;;;;;;;;15.11;54.30;102872.44;5073840;28;20115;-34
2022/05/08 09:17:00;;;;;;;11.60;2.70;;;;;;;14.98;52.46;102878.72;5073862;28;19909;-34
2022/05/08 09:19:39;;;;;;;10.15;2.95;;;;;;;15.14;54.03;102881.03;5073394;28;20060;-34
2022/05/08 09:22:06;;;;;;;9.15;2.90;;;;;;;15.10;54.43;102874.31;5073060;28;20546;-35
2022/05/08 09:24:33;;;;;;;10.43;3.22;;;;;;;15.16;53.28;102878.91;5073330;28;20078;-34
2022/05/08 09:27:13;;;;;;;6.97;2.30;;;;;;;15.38;52.62;102874.06;5073441;28;20071;-34
2022/05/08 09:29:39;;;;;;;12.73;3.30;;;;;;;15.54;52.25;102870.03;5073355;28;20031;-34
2022/05/08 09:32:05;;;;;;;12.30;2.95;;;;;;;15.60;52.18;102868.31;5073348;28;20032;-34
2022/05/08 09:34:30;;;;;;;8.07;2.78;;;;;;;15.76;50.44;102859.69;5072897;28;20021;-35
2022/05/08 09:37:08;;;;;;;;;;;;;;;16.01;52.17;102865.25;5073939;28;20027;-35
2022/05/08 09:39:33;;;;;;;8.60;2.53;;;;;;;16.10;49.67;102863.91;5073234;28;19948;-35
2022/05/08 09:41:59;;;;;;;;;;;;;;;16.24;51.84;102864.66;5073661;28;20063;-35
2022/05/08 09:44:24;;;;;;;7.15;2.20;;;;;;;16.13;50.32;102862.66;5073169;28;20356;-35
2022/05/08 09:46:49;;;;;;;;;;;;;;;16.05;50.75;102863.72;5074272;28;20028;-34
2022/05/08 09:49:23;;;;;;;9.87;2.87;;;;;;;15.90;50.27;102860.47;5072921;28;20329;-35
2022/05/08 09:51:50;;;;;;;7.80;2.42;;;;;;;15.98;50.02;102864.84;5073013;28;20281;-34
2022/05/08 09:54:17;;;;;;;8.45;2.53;;;;;;;16.12;49.27;102860.97;5073169;28;20028;-35
2022/05/08 09:56:44;;;;;;;7.18;2.33;;;;;;;16.29;49.15;102850.34;5073250;28;20055;-35
2022/05/08 09:59:11;;;;;;;7.82;2.53;;;;;;;16.47;48.50;102870.41;5072544;28;20028;-35
2022/05/08 10:01:41;;;;;;;8.65;2.25;;;;;;;16.60;47.77;102868.63;5073058;28;20028;-34
2022/05/08 10:04:06;;;;;;;8.05;2.53;;;;;;;16.51;47.49;102861.78;5072823;28;20028;-35
2022/05/08 10:06:34;;;;;;;9.27;2.42;;;;;;;16.37;46.91;102829.09;5073453;28;20036;-35
2022/05/08 10:14:33;;;;;;;9.80;2.90;;;;;;;16.63;47.14;102852.63;5072639;28;20036;-35
2022/05/08 10:17:03;;;;;;;10.43;2.75;;;;;;;16.58;47.59;102855.19;5073019;28;20035;-35
2022/05/08 10:19:28;;;;;;;10.43;2.85;;;;;;;16.79;47.81;102850.41;5072986;28;20024;-35
2022/05/08 10:21:57;;;;;;;48.13;5.57;;;;;;;16.85;47.61;102850.38;5072153;28;20388;-35
2022/05/08 10:24:35;;;;;;;10.73;2.70;;;;;;;17.08;48.69;102841.53;5073248;28;20838;-35
2022/05/08 10:27:33;;;;;;;23.52;3.67;;;;;;;17.02;48.31;102844.31;5072866;28;20532;-35
2022/05/08 10:29:58;;;;;;;9.68;2.47;;;;;;;17.11;47.58;102837.50;5050611;28;20053;-35
2022/05/08 10:32:26;;;;;;;;;;;;;;;17.49;49.08;102832.66;5050541;28;20033;-35
2022/05/08 10:35:09;;;;;;;6.88;2.85;;;;;;;17.41;46.98;102832.09;5050360;28;19923;-35
2022/05/08 10:37:35;;;;;;;5.88;2.15;;;;;;;17.50;45.88;102823.38;5050052;28;20041;-34
2022/05/08 10:40:01;;;;;;;19.33;3.72;;;;;;;17.72;45.59;102825.63;5050262;28;20041;-34
2022/05/08 10:42:29;;;;;;;19.85;4.18;;;;;;;17.54;44.99;102809.25;5050330;28;20052;-35
2022/05/08 10:44:56;;;;;;;85.47;11.77;;;;;;;17.56;45.63;102823.50;5049734;28;20028;-34
2022/05/08 10:47:34;;;;;;;8.10;2.80;;;;;;;17.74;46.42;102820.78;5049805;28;20072;-35
2022/05/08 10:50:01;;;;;;;7.50;2.55;;;;;;;17.67;44.86;102815.38;5050610;28;20033;-35
2022/05/08 10:52:26;;;;;;;9.50;2.70;;;;;;;17.67;46.16;102822.75;5049538;28;20045;-35
2022/05/08 10:54:57;;;;;;;;;;;;;;;17.87;46.16;102822.53;5034058;28;20136;-35
2022/05/08 10:57:36;;;;;;;10.63;2.78;;;;;;;17.83;44.34;102813.09;5050342;28;19916;-35
2022/05/08 11:00:05;;;;;;;9.25;2.38;;;;;;;17.79;44.28;102822.84;5051025;28;20234;-35
2022/05/08 11:02:47;;;;;;;7.60;2.72;;;;;;;18.05;44.65;102811.50;5053724;28;20033;-35
2022/05/08 11:05:13;;;;;;;7.53;2.20;;;;;;;18.02;44.74;102809.25;5041941;28;20044;-35
2022/05/08 11:07:39;;;;;;;;;;;;;;;18.39;45.56;102817.28;5056533;28;20025;-35
2022/05/08 11:10:16;;;;;;;8.38;2.50;;;;;;;18.27;44.04;102814.53;5056207;28;19919;-35
2022/05/08 11:13:00;;;;;;;10.68;2.47;;;;;;;18.43;45.07;102791.94;5058261;28;20106;-34
2022/05/08 11:15:29;;;;;;;6.75;2.50;;;;;;;18.61;43.22;102812.94;5075459;28;20028;-35
2022/05/08 11:18:08;;;;;;;7.18;2.47;;;;;;;18.62;43.85;102817.31;5075782;28;20036;-35
2022/05/08 11:21:12;;;;;;;8.13;2.53;;;;;;;18.77;43.53;102812.22;5075592;28;20036;-35
2022/05/08 11:23:44;;;;;;;9.68;2.78;;;;;;;18.80;41.47;102816.41;5074152;28;20040;-35
2022/05/08 11:26:10;;;;;;;12.07;2.38;;;;;;;18.46;41.71;102807.91;5075277;28;20028;-35
2022/05/08 11:28:46;;;;;;;5.45;2.15;;;;;;;18.72;42.00;102801.16;5075296;28;20032;-35
2022/05/08 11:31:14;;;;;;;8.47;2.10;;;;;;;19.07;41.82;102807.69;5075062;28;20040;-35
2022/05/08 11:36:32;;;;;;;6.68;3.08;;;;;;;19.40;40.19;102807.88;5075108;28;20066;-35
2022/05/08 11:39:18;;;;;;;9.13;2.83;;;;;;;19.30;40.81;102804.91;5074596;28;20033;-35
2022/05/08 11:41:46;;;;;;;6.97;2.72;;;;;;;19.34;40.30;102789.63;5074780;28;20064;-35
2022/05/08 11:44:16;;;;;;;7.07;2.22;;;;;;;19.47;40.39;102792.13;5075659;28;20445;-35
2022/05/08 11:46:44;;;;;;;6.85;2.80;;;;;;;19.44;40.03;102792.59;5074700;28;20020;-35
2022/05/08 11:49:17;;;;;;;5.97;2.35;;;;;;;19.50;40.23;102777.06;5075218;28;20115;-35
2022/05/08 11:51:44;;;;;;;8.63;2.75;;;;;;;19.79;38.93;102787.00;5075453;28;20381;-35